首页
METAR-TAF:

METAR-TAF

机场 :

伯明翰机场

伯明翰, 英格兰

纬度: 52-27N, 经度: 001-44W, 海拔: 99米

当前天气观测

该预报发布于48分钟前的01:20 UTC
风速2节,风向多变
温度 3°C
湿度 81%
气压 1028 hPa
能见度10公里或以上

METAR: EGBB 070120Z AUTO VRB02KT 9999 NCD 03/M00 Q1028

时间: 03:08 (02:08 UTC)

预报

该预报发布于3小时和13分钟前的22:55 UTC
预报有效从07日的 00点(UTC)到 07日的 24点(UTC)
风速3节,风向多变
能见度10公里或以上
1500米以下无云,无积雨云
几率 40%
从 07日的 03点(UTC)到 07日的 08点(UTC)
能見度: 8000
成为
从 07日的 09点(UTC)到 07日的 12点(UTC)
风速10节,风向南转南东
成为
从 07日的 18点(UTC)到 07日的 21点(UTC)
风速3节,风向多变

TAF: EGBB 062255Z 0700/0724 VRB03KT CAVOK PROB40 0703/0708 8000 BECMG 0709/0712 15010KT BECMG 0718/0721 VRB03KT

超过4000个机场的气象观测和天气预报(METAR&TAF报告)。

可查询的气象台以黄色和红色小点在地图上表示。

将鼠标移到小点上方,可查看气象台名称。

然后点击查看天气观测和预报。

如需切换地图:点击带黑十字的绿色按钮放大地图;点击带横线的绿色按钮缩小地图;或者点击绿色箭头查看邻近地区的地图。


METAR-TAF: